Time;durP1;ratioP1;P1;durP2;ratioP2;P2;SDS_P1;SDS_P2;PMS_P1;PMS_P2;Temp;Humidity;BMP_temperature;BMP_pressure;BME280_temperature;BME280_humidity;BME280_pressure;Samples;Min_cycle;Max_cycle;Signal;HPM_P1;HPM_P2
2024/04/01 00:00:37;;;;;;;;;;;10.20;99.90;;;;;;5089569;28;20363;-76
2024/04/01 00:03:02;;;;;;;;;;;10.10;99.90;;;;;;5092041;28;19908;-76
2024/04/01 00:05:29;;;;;;;;;;;10.10;99.90;;;;;;5091342;28;20444;-76
2024/04/01 00:07:57;;;;;;;;;;;10.10;99.90;;;;;;5089865;28;19912;-76
2024/04/01 00:10:23;;;;;;;;;;;10.20;99.90;;;;;;5090678;28;19908;-74
2024/04/01 00:12:48;;;;;;;;;;;10.20;99.90;;;;;;5090326;28;20375;-74
2024/04/01 00:15:16;;;;;;;;;;;10.10;99.90;;;;;;5091363;28;19908;-75
2024/04/01 00:17:42;;;;;;;;;;;10.00;99.90;;;;;;5091814;28;19919;-74
2024/04/01 00:20:07;;;;;;;;;;;9.90;99.90;;;;;;5093165;28;19912;-74
2024/04/01 00:22:33;;;;;;;;;;;9.90;99.90;;;;;;5094221;28;19943;-75
2024/04/01 00:24:58;;;;;;;;;;;9.90;99.90;;;;;;5092680;28;19908;-74
2024/04/01 00:27:24;;;;;;;;;;;9.90;99.90;;;;;;5095112;28;19995;-74
2024/04/01 00:29:49;;;;;;;;;;;9.90;99.90;;;;;;5094374;28;20319;-74
2024/04/01 00:32:15;;;;;;;;;;;9.90;99.90;;;;;;5093900;28;19909;-74
2024/04/01 00:34:41;;;;;;;;;;;9.90;99.90;;;;;;5093736;28;20014;-73
2024/04/01 00:37:06;;;;;;;;;;;9.80;99.90;;;;;;5095141;28;19908;-74
2024/04/01 00:39:32;;;;;;;;;;;9.80;99.90;;;;;;5092440;28;19916;-74
2024/04/01 00:41:57;;;;;;;;;;;9.80;99.90;;;;;;5094362;28;19912;-74
2024/04/01 00:44:23;;;;;;;;;;;9.70;99.90;;;;;;5092529;28;19908;-74
2024/04/01 00:46:48;;;;;;;;;;;9.80;99.90;;;;;;5094932;28;20002;-74
2024/04/01 00:49:14;;;;;;;;;;;9.80;99.90;;;;;;5094165;28;19915;-75
2024/04/01 00:51:40;;;;;;;;;;;9.80;99.90;;;;;;5095714;28;20004;-74
2024/04/01 00:54:06;;;;;;;;;;;9.80;99.90;;;;;;5099165;28;19957;-74
2024/04/01 00:56:32;;;;;;;;;;;9.90;99.90;;;;;;5105692;28;19946;-74
2024/04/01 00:59:00;;;;;;;;;;;9.90;99.90;;;;;;5102122;28;19955;-74
2024/04/01 01:01:27;;;;;;;;;;;10.10;99.90;;;;;;5094844;28;19908;-74
2024/04/01 01:03:53;;;;;;;;;;;10.30;99.90;;;;;;5094021;28;19915;-74
2024/04/01 01:06:19;;;;;;;;;;;10.50;99.90;;;;;;5093859;28;19908;-75
2024/04/01 01:08:45;;;;;;;;;;;10.40;99.90;;;;;;5093331;28;19954;-74
2024/04/01 01:11:11;;;;;;;;;;;10.50;99.90;;;;;;5093121;28;19974;-74
2024/04/01 01:13:36;;;;;;;;;;;10.70;99.90;;;;;;5094373;28;19908;-74
2024/04/01 01:16:02;;;;;;;;;;;10.70;99.90;;;;;;5091808;28;20007;-74
2024/04/01 01:18:27;;;;;;;;;;;10.60;99.90;;;;;;5092216;28;19920;-74
2024/04/01 01:20:53;;;;;;;;;;;10.60;99.90;;;;;;5094252;28;19912;-75
2024/04/01 01:23:18;;;;;;;;;;;10.50;99.90;;;;;;5093924;28;19908;-74
2024/04/01 01:25:44;;;;;;;;;;;10.50;99.90;;;;;;5092487;28;19908;-75
2024/04/01 01:28:09;;;;;;;;;;;10.40;99.90;;;;;;5092418;28;19985;-73
2024/04/01 01:30:35;;;;;;;;;;;10.40;99.90;;;;;;5091898;28;19908;-74
2024/04/01 01:33:02;;;;;;;;;;;10.40;99.90;;;;;;5093651;28;19909;-74
2024/04/01 01:35:28;;;;;;;;;;;10.40;99.90;;;;;;5091295;28;19979;-74
2024/04/01 01:37:54;;;;;;;;;;;10.30;99.90;;;;;;5092215;28;20018;-74
2024/04/01 01:40:20;;;;;;;;;;;10.20;99.90;;;;;;5091955;28;19912;-73
2024/04/01 01:42:46;;;;;;;;;;;10.10;99.90;;;;;;5093419;28;19908;-74
2024/04/01 01:45:11;;;;;;;;;;;10.10;99.90;;;;;;5092191;28;19908;-74
2024/04/01 01:47:37;;;;;;;;;;;10.10;99.90;;;;;;5093627;28;19992;-74
2024/04/01 01:50:03;;;;;;;;;;;10.20;99.90;;;;;;5092183;28;19953;-74
2024/04/01 01:52:29;;;;;;;;;;;10.20;99.90;;;;;;5092806;28;19923;-74
2024/04/01 01:54:55;;;;;;;;;;;10.20;99.90;;;;;;5093206;28;19909;-74
2024/04/01 01:57:20;;;;;;;;;;;10.30;99.90;;;;;;5091923;28;19923;-73
2024/04/01 01:59:46;;;;;;;;;;;10.30;99.90;;;;;;5091538;28;20299;-74
2024/04/01 02:02:12;;;;;;;;;;;10.20;99.90;;;;;;5092902;28;19930;-73
2024/04/01 02:04:38;;;;;;;;;;;10.20;99.90;;;;;;5093066;28;20062;-73
2024/04/01 02:07:04;;;;;;;;;;;10.10;99.90;;;;;;5092927;28;19977;-74
2024/04/01 02:09:29;;;;;;;;;;;10.10;99.90;;;;;;5091258;28;20389;-74
2024/04/01 02:11:55;;;;;;;;;;;10.10;99.90;;;;;;5090506;28;19997;-74
2024/04/01 02:14:20;;;;;;;;;;;10.00;99.90;;;;;;5091881;28;19965;-73
2024/04/01 02:16:46;;;;;;;;;;;10.00;99.90;;;;;;5093110;28;19951;-74
2024/04/01 02:19:13;;;;;;;;;;;10.00;99.90;;;;;;5092744;28;20455;-74
2024/04/01 02:21:38;;;;;;;;;;;10.00;99.90;;;;;;5092719;28;19989;-74
2024/04/01 02:24:04;;;;;;;;;;;10.00;99.90;;;;;;5094317;28;20359;-73
2024/04/01 02:26:30;;;;;;;;;;;10.00;99.90;;;;;;5100263;28;20236;-73
2024/04/01 02:28:55;;;;;;;;;;;10.00;99.90;;;;;;5099428;28;20477;-73
2024/04/01 02:31:21;;;;;;;;;;;10.10;99.90;;;;;;5092000;28;20375;-73
2024/04/01 02:33:47;;;;;;;;;;;10.10;99.90;;;;;;5093122;28;20020;-73
2024/04/01 02:36:13;;;;;;;;;;;10.00;99.90;;;;;;5091209;28;20359;-73
2024/04/01 02:38:38;;;;;;;;;;;10.10;99.90;;;;;;5080512;28;20005;-73
2024/04/01 02:41:04;;;;;;;;;;;10.10;99.90;;;;;;5090034;28;19912;-73
2024/04/01 02:43:29;;;;;;;;;;;10.10;99.90;;;;;;5092023;28;19908;-75
2024/04/01 02:45:55;;;;;;;;;;;10.10;99.90;;;;;;5090839;28;19961;-73
2024/04/01 02:48:20;;;;;;;;;;;10.30;99.90;;;;;;5091104;28;19940;-73
2024/04/01 02:50:47;;;;;;;;;;;10.40;99.90;;;;;;5092603;28;19920;-74
2024/04/01 02:53:13;;;;;;;;;;;10.50;99.90;;;;;;5092246;28;19970;-74
2024/04/01 02:55:38;;;;;;;;;;;10.60;99.90;;;;;;5090642;28;20282;-75
2024/04/01 02:58:04;;;;;;;;;;;10.60;99.90;;;;;;5092406;28;19916;-73
2024/04/01 03:00:29;;;;;;;;;;;10.60;99.90;;;;;;5090382;28;20336;-74
2024/04/01 03:02:55;;;;;;;;;;;10.50;99.90;;;;;;5092488;28;20287;-73
2024/04/01 03:05:20;;;;;;;;;;;10.40;99.90;;;;;;5090887;28;19916;-73
2024/04/01 03:07:46;;;;;;;;;;;10.40;99.90;;;;;;5092733;28;20421;-74
2024/04/01 03:10:12;;;;;;;;;;;10.40;99.90;;;;;;5091466;28;19958;-74
2024/04/01 03:12:38;;;;;;;;;;;10.40;99.90;;;;;;5092634;28;19908;-73
2024/04/01 03:15:04;;;;;;;;;;;10.50;99.90;;;;;;5092596;28;19908;-73
2024/04/01 03:17:31;;;;;;;;;;;10.60;99.90;;;;;;5090801;28;19912;-74
2024/04/01 03:19:56;;;;;;;;;;;10.70;99.90;;;;;;5091275;28;19927;-73
2024/04/01 03:22:22;;;;;;;;;;;10.60;99.90;;;;;;5089821;28;19908;-74
2024/04/01 03:24:48;;;;;;;;;;;10.60;99.90;;;;;;5091822;28;19912;-74
2024/04/01 03:27:13;;;;;;;;;;;10.50;99.90;;;;;;5092178;28;19908;-74
2024/04/01 03:29:39;;;;;;;;;;;10.50;99.90;;;;;;5090088;28;19908;-73
2024/04/01 03:32:05;;;;;;;;;;;10.60;99.90;;;;;;5092101;28;19915;-73
2024/04/01 03:34:30;;;;;;;;;;;10.50;99.90;;;;;;5091408;28;19920;-74
2024/04/01 03:36:58;;;;;;;;;;;10.50;99.90;;;;;;5091704;28;19916;-73
2024/04/01 03:39:24;;;;;;;;;;;10.50;99.90;;;;;;5088966;28;19916;-74
2024/04/01 03:41:49;;;;;;;;;;;10.50;99.90;;;;;;5090531;28;19912;-73
2024/04/01 03:44:15;;;;;;;;;;;10.50;99.90;;;;;;5090517;28;19953;-74
2024/04/01 03:46:41;;;;;;;;;;;10.50;99.90;;;;;;5091929;28;20300;-74
2024/04/01 03:49:07;;;;;;;;;;;10.40;99.90;;;;;;5090316;28;19916;-73
2024/04/01 03:51:32;;;;;;;;;;;10.50;99.90;;;;;;5090747;28;19909;-74
2024/04/01 03:53:58;;;;;;;;;;;10.60;99.90;;;;;;5092977;28;19927;-74
2024/04/01 03:56:23;;;;;;;;;;;10.70;99.90;;;;;;5093289;28;19911;-73
2024/04/01 03:58:49;;;;;;;;;;;10.70;99.90;;;;;;5095366;28;19922;-73
2024/04/01 04:01:16;;;;;;;;;;;10.60;99.90;;;;;;5095848;28;19908;-74
2024/04/01 04:03:42;;;;;;;;;;;10.60;99.90;;;;;;5095527;28;19920;-74
2024/04/01 04:06:11;;;;;;;;;;;10.60;99.90;;;;;;5094391;28;19915;-73
2024/04/01 04:08:37;;;;;;;;;;;10.60;99.90;;;;;;5094269;28;20387;-74
2024/04/01 04:11:07;;;;;;;;;;;10.60;99.90;;;;;;5095999;28;19909;-74
2024/04/01 04:13:35;;;;;;;;;;;10.60;99.90;;;;;;5095472;28;19912;-74
2024/04/01 04:16:01;;;;;;;;;;;10.70;99.90;;;;;;5097553;28;19912;-74
2024/04/01 04:18:27;;;;;;;;;;;10.70;99.90;;;;;;5094596;28;19920;-74
2024/04/01 04:20:55;;;;;;;;;;;10.70;99.90;;;;;;5094141;28;19912;-73
2024/04/01 04:23:21;;;;;;;;;;;10.60;99.90;;;;;;5093821;28;19912;-73
2024/04/01 04:25:47;;;;;;;;;;;10.50;99.90;;;;;;5095291;28;19915;-73
2024/04/01 04:28:12;;;;;;;;;;;10.70;99.90;;;;;;5093590;28;19915;-74
2024/04/01 04:30:38;;;;;;;;;;;10.70;99.90;;;;;;5093479;28;19908;-74
2024/04/01 04:33:03;;;;;;;;;;;10.80;99.90;;;;;;5094907;28;19920;-73
2024/04/01 04:35:29;;;;;;;;;;;10.70;99.90;;;;;;5094721;28;19923;-74
2024/04/01 04:37:55;;;;;;;;;;;10.70;99.90;;;;;;5093498;28;19916;-73
2024/04/01 04:40:20;;;;;;;;;;;10.60;99.90;;;;;;5093229;28;19999;-74
2024/04/01 04:42:46;;;;;;;;;;;10.50;99.90;;;;;;5094754;28;19930;-73
2024/04/01 04:45:11;;;;;;;;;;;10.40;99.90;;;;;;5093742;28;19908;-72
2024/04/01 04:47:37;;;;;;;;;;;10.60;99.90;;;;;;5093933;28;19912;-74
2024/04/01 04:50:02;;;;;;;;;;;10.50;99.90;;;;;;5094164;28;19931;-73
2024/04/01 04:52:28;;;;;;;;;;;10.60;99.90;;;;;;5093974;28;20397;-73
2024/04/01 04:54:53;;;;;;;;;;;10.50;99.90;;;;;;5093793;28;19955;-73
2024/04/01 04:57:19;;;;;;;;;;;10.50;99.90;;;;;;5093335;28;19916;-73
2024/04/01 04:59:46;;;;;;;;;;;10.50;99.90;;;;;;5093886;28;20260;-74
2024/04/01 05:02:12;;;;;;;;;;;10.40;99.90;;;;;;5093118;28;20027;-73
2024/04/01 05:04:37;;;;;;;;;;;10.40;99.90;;;;;;5092569;28;19912;-74
2024/04/01 05:07:03;;;;;;;;;;;10.40;99.90;;;;;;5092258;28;19908;-73
2024/04/01 05:09:29;;;;;;;;;;;10.40;99.90;;;;;;5094014;28;19915;-73
2024/04/01 05:11:55;;;;;;;;;;;10.40;99.90;;;;;;5092925;28;19908;-73
2024/04/01 05:14:23;;;;;;;;;;;10.40;99.90;;;;;;5094002;28;20286;-73
2024/04/01 05:16:51;;;;;;;;;;;10.50;99.90;;;;;;5093809;28;19908;-73
2024/04/01 05:19:18;;;;;;;;;;;10.60;99.90;;;;;;5093349;28;20296;-73
2024/04/01 05:21:44;;;;;;;;;;;10.50;99.90;;;;;;5094043;28;19912;-73
2024/04/01 05:24:09;;;;;;;;;;;10.50;99.90;;;;;;5092572;28;19908;-73
2024/04/01 05:26:35;;;;;;;;;;;10.50;99.90;;;;;;5092683;28;19908;-73
2024/04/01 05:29:00;;;;;;;;;;;10.50;99.90;;;;;;5092642;28;19963;-73
2024/04/01 05:31:26;;;;;;;;;;;10.60;99.90;;;;;;5092750;28;19961;-73
2024/04/01 05:33:52;;;;;;;;;;;10.60;99.90;;;;;;5093753;28;20451;-74
2024/04/01 05:36:18;;;;;;;;;;;10.50;99.90;;;;;;5093589;28;19908;-72
2024/04/01 05:38:44;;;;;;;;;;;10.50;99.90;;;;;;5093197;28;20016;-73
2024/04/01 05:41:09;;;;;;;;;;;10.50;99.90;;;;;;5093911;28;19908;-75
2024/04/01 05:43:35;;;;;;;;;;;10.40;99.90;;;;;;5093891;28;19953;-75
2024/04/01 05:46:00;;;;;;;;;;;10.40;99.90;;;;;;5094036;28;19912;-74
2024/04/01 05:48:26;;;;;;;;;;;10.60;99.90;;;;;;5092649;28;19914;-75
2024/04/01 05:50:52;;;;;;;;;;;10.70;99.90;;;;;;5095221;28;20003;-74
2024/04/01 05:53:18;;;;;;;;;;;10.70;99.90;;;;;;5095683;28;19940;-74
2024/04/01 05:55:43;;;;;;;;;;;10.70;99.90;;;;;;5092579;28;20255;-74
2024/04/01 05:58:09;;;;;;;;;;;10.70;99.90;;;;;;5092356;28;20367;-73
2024/04/01 06:00:35;;;;;;;;;;;10.70;99.90;;;;;;5093144;28;19916;-74
2024/04/01 06:03:00;;;;;;;;;;;10.90;99.90;;;;;;5093775;28;19912;-74
2024/04/01 06:05:26;;;;;;;;;;;11.00;99.90;;;;;;5091312;28;19908;-74
2024/04/01 06:07:52;;;;;;;;;;;11.10;99.90;;;;;;5091963;28;19915;-74
2024/04/01 06:10:17;;;;;;;;;;;11.00;99.90;;;;;;5088305;28;19915;-74
2024/04/01 06:12:42;;;;;;;;;;;10.90;99.90;;;;;;5091871;28;19908;-74
2024/04/01 06:15:08;;;;;;;;;;;11.00;99.90;;;;;;5091475;28;19908;-74
2024/04/01 06:17:33;;;;;;;;;;;11.10;99.90;;;;;;5092339;28;20438;-74
2024/04/01 06:19:59;;;;;;;;;;;11.10;99.90;;;;;;5091923;28;19920;-74
2024/04/01 06:22:24;;;;;;;;;;;11.00;99.90;;;;;;5091871;28;19912;-73
2024/04/01 06:24:50;;;;;;;;;;;11.20;99.90;;;;;;5090165;28;19958;-75
2024/04/01 06:27:17;;;;;;;;;;;11.20;99.90;;;;;;5093044;28;19920;-74
2024/04/01 06:29:42;;;;;;;;;;;11.10;99.90;;;;;;5092314;28;19916;-75
2024/04/01 06:32:08;;;;;;;;;;;11.00;99.90;;;;;;5092868;28;19998;-74
2024/04/01 06:34:33;;;;;;;;;;;11.10;99.90;;;;;;5091131;28;19991;-74
2024/04/01 06:36:59;;;;;;;;;;;11.10;99.90;;;;;;5091504;28;20282;-74
2024/04/01 06:39:24;;;;;;;;;;;11.10;99.90;;;;;;5090809;28;20008;-73
2024/04/01 06:41:50;;;;;;;;;;;11.20;99.90;;;;;;5092393;28;19919;-73
2024/04/01 06:44:16;;;;;;;;;;;11.30;99.90;;;;;;5077702;28;19912;-74
2024/04/01 06:46:41;;;;;;;;;;;11.30;99.90;;;;;;5092431;28;19909;-74
2024/04/01 06:49:07;;;;;;;;;;;11.40;99.90;;;;;;5090796;28;19908;-73
2024/04/01 06:51:32;;;;;;;;;;;11.40;99.90;;;;;;5091420;28;19916;-74
2024/04/01 06:53:58;;;;;;;;;;;11.50;99.90;;;;;;5092100;28;19916;-74
2024/04/01 06:56:23;;;;;;;;;;;11.40;99.90;;;;;;5092594;28;19974;-74
2024/04/01 06:58:49;;;;;;;;;;;11.40;99.90;;;;;;5092088;28;19916;-73
2024/04/01 07:01:14;;;;;;;;;;;11.40;99.90;;;;;;5091643;28;20317;-75
2024/04/01 07:03:40;;;;;;;;;;;11.50;99.90;;;;;;5092524;28;19909;-74
2024/04/01 07:06:05;;;;;;;;;;;11.50;99.90;;;;;;5092636;28;19908;-73
2024/04/01 07:08:31;;;;;;;;;;;11.60;99.90;;;;;;5091962;28;19915;-72
2024/04/01 07:10:56;;;;;;;;;;;11.70;99.90;;;;;;5091098;28;20458;-73
2024/04/01 07:13:22;;;;;;;;;;;11.80;99.90;;;;;;5092299;28;19916;-73
2024/04/01 07:15:47;;;;;;;;;;;11.90;99.90;;;;;;5090937;28;19909;-73
2024/04/01 07:18:13;;;;;;;;;;;11.90;99.90;;;;;;5091074;28;19920;-73
2024/04/01 07:20:38;;;;;;;;;;;12.00;99.90;;;;;;5090421;28;20019;-73
2024/04/01 07:23:04;;;;;;;;;;;12.00;99.90;;;;;;5090247;28;19916;-74
2024/04/01 07:25:29;;;;;;;;;;;12.10;99.90;;;;;;5087230;28;19939;-73
2024/04/01 07:27:55;;;;;;;;;;;12.20;99.90;;;;;;5082833;28;19943;-73
2024/04/01 07:30:20;;;;;;;;;;;12.10;99.90;;;;;;5095707;28;19912;-73
2024/04/01 07:32:46;;;;;;;;;;;12.10;99.90;;;;;;5095341;28;20290;-73
2024/04/01 07:35:11;;;;;;;;;;;12.10;99.90;;;;;;5097072;28;19915;-73
2024/04/01 07:37:37;;;;;;;;;;;12.20;99.90;;;;;;5094086;28;19954;-74
2024/04/01 07:40:03;;;;;;;;;;;12.40;99.90;;;;;;5095552;28;20329;-74
2024/04/01 07:42:28;;;;;;;;;;;12.50;99.90;;;;;;5085251;28;19913;-73
2024/04/01 07:44:54;;;;;;;;;;;12.70;99.90;;;;;;5084949;28;19908;-73
2024/04/01 07:47:19;;;;;;;;;;;12.70;99.90;;;;;;5094361;28;19961;-73
2024/04/01 07:49:48;;;;;;;;;;;12.80;99.90;;;;;;5093960;28;19908;-73
2024/04/01 07:52:13;;;;;;;;;;;12.80;99.90;;;;;;5094425;28;19912;-73
2024/04/01 07:54:39;;;;;;;;;;;12.80;99.90;;;;;;5086189;28;20390;-74
2024/04/01 07:57:05;;;;;;;;;;;12.70;99.90;;;;;;5082676;28;19956;-73
2024/04/01 07:59:31;;;;;;;;;;;12.60;99.90;;;;;;5095233;28;20357;-72
2024/04/01 08:01:56;;;;;;;;;;;12.50;99.90;;;;;;5092441;28;19970;-73
2024/04/01 08:04:25;;;;;;;;;;;12.50;99.90;;;;;;5093651;28;20325;-73
2024/04/01 08:06:50;;;;;;;;;;;12.50;99.90;;;;;;5092093;28;19915;-73
2024/04/01 08:09:16;;;;;;;;;;;12.60;99.90;;;;;;5087009;28;19912;-72
2024/04/01 08:11:41;;;;;;;;;;;12.60;99.90;;;;;;5093456;28;19918;-73
2024/04/01 08:14:07;;;;;;;;;;;12.60;99.90;;;;;;5091135;28;19918;-73
2024/04/01 08:16:32;;;;;;;;;;;12.60;99.90;;;;;;5091827;28;19908;-73
2024/04/01 08:18:58;;;;;;;;;;;12.50;99.90;;;;;;5093654;28;19920;-73
2024/04/01 08:21:23;;;;;;;;;;;12.50;99.90;;;;;;5095431;28;19927;-73
2024/04/01 08:23:49;;;;;;;;;;;12.50;99.90;;;;;;5095051;28;19915;-73
2024/04/01 08:26:15;;;;;;;;;;;12.40;99.90;;;;;;5093618;28;19908;-73
2024/04/01 08:28:40;;;;;;;;;;;12.30;99.90;;;;;;5094493;28;19912;-73
2024/04/01 08:31:06;;;;;;;;;;;12.40;99.90;;;;;;5092339;28;19915;-73
2024/04/01 08:33:31;;;;;;;;;;;12.30;99.90;;;;;;5093616;28;20488;-73
2024/04/01 08:35:57;;;;;;;;;;;12.20;99.90;;;;;;5094449;28;19999;-72
2024/04/01 08:38:23;;;;;;;;;;;12.10;99.90;;;;;;5088565;28;19920;-72
2024/04/01 08:40:51;;;;;;;;;;;12.20;99.90;;;;;;5093569;28;20287;-72
2024/04/01 08:43:24;;;;;;;;;;;12.10;99.90;;;;;;5090270;28;19908;-72
2024/04/01 08:45:50;;;;;;;;;;;12.10;99.90;;;;;;5083241;28;19908;-73
2024/04/01 08:48:16;;;;;;;;;;;12.00;99.90;;;;;;5090545;28;20341;-73
2024/04/01 08:50:48;;;;;;;;;;;12.10;99.90;;;;;;5092385;28;20007;-73
2024/04/01 08:53:20;;;;;;;;;;;12.00;99.90;;;;;;5088377;28;19924;-74
2024/04/01 08:55:46;;;;;;;;;;;11.90;99.90;;;;;;5090223;28;19961;-73
2024/04/01 08:58:11;;;;;;;;;;;12.00;99.90;;;;;;5089005;28;20379;-73
2024/04/01 09:00:37;;;;;;;;;;;11.90;99.90;;;;;;5082751;28;19912;-72
2024/04/01 09:03:02;;;;;;;;;;;12.00;99.90;;;;;;5091274;28;19916;-74
2024/04/01 09:05:28;;;;;;;;;;;12.00;99.90;;;;;;5088334;28;19912;-76
2024/04/01 09:07:54;;;;;;;;;;;12.10;99.90;;;;;;5089742;28;20106;-77
2024/04/01 09:10:21;;;;;;;;;;;12.10;99.90;;;;;;5092100;28;20066;-73
2024/04/01 09:12:47;;;;;;;;;;;12.20;99.90;;;;;;5094362;28;20358;-72
2024/04/01 09:15:12;;;;;;;;;;;12.40;99.90;;;;;;5097327;28;19999;-74
2024/04/01 09:17:38;;;;;;;;;;;12.50;99.90;;;;;;5094141;28;20637;-73
2024/04/01 09:20:04;;;;;;;;;;;12.60;99.90;;;;;;5093270;28;20018;-73
2024/04/01 09:22:33;;;;;;;;;;;12.90;99.90;;;;;;5086891;28;19912;-74
2024/04/01 09:24:58;;;;;;;;;;;13.00;99.90;;;;;;5093138;28;19951;-72
2024/04/01 09:27:25;;;;;;;;;;;13.10;99.90;;;;;;5094791;28;19912;-74
2024/04/01 09:29:51;;;;;;;;;;;13.20;99.90;;;;;;5093432;28;19912;-73
2024/04/01 09:32:17;;;;;;;;;;;13.30;99.90;;;;;;5092940;28;20265;-73
2024/04/01 09:34:42;;;;;;;;;;;13.50;99.90;;;;;;5091165;28;19969;-75
2024/04/01 09:37:08;;;;;;;;;;;13.60;99.90;;;;;;5091645;28;19908;-73
2024/04/01 09:39:34;;;;;;;;;;;13.70;99.90;;;;;;5092947;28;19923;-73
2024/04/01 09:42:00;;;;;;;;;;;13.80;99.90;;;;;;5093287;28;19908;-73
2024/04/01 09:44:25;;;;;;;;;;;13.90;99.90;;;;;;5093379;28;20301;-73
2024/04/01 09:46:54;;;;;;;;;;;14.00;99.90;;;;;;5093137;28;19927;-73
2024/04/01 09:49:20;;;;;;;;;;;14.10;99.90;;;;;;5092832;28;19908;-72
2024/04/01 09:51:46;;;;;;;;;;;14.20;99.90;;;;;;5092948;28;19915;-72
2024/04/01 09:54:12;;;;;;;;;;;14.30;99.90;;;;;;5092874;28;19950;-73
2024/04/01 09:56:56;;;;;;;;;;;14.50;99.90;;;;;;5090227;28;19960;-73
2024/04/01 09:59:27;;;;;;;;;;;14.70;99.90;;;;;;5080968;28;19924;-72
2024/04/01 10:02:13;;;;;;;;;;;14.90;99.90;;;;;;5076904;28;20464;-72
2024/04/01 10:04:54;;;;;;;;;;;15.10;99.90;;;;;;5085766;28;19916;-72
2024/04/01 10:07:32;;;;;;;;;;;15.30;99.90;;;;;;5090243;28;19987;-72
2024/04/01 10:10:17;;;;;;;;;;;15.40;99.90;;;;;;5089328;28;20014;-74
2024/04/01 10:12:45;;;;;;;;;;;15.50;99.90;;;;;;5087644;28;20003;-73
2024/04/01 10:15:30;;;;;;;;;;;15.70;99.90;;;;;;5090813;28;19923;-72
2024/04/01 10:18:02;;;;;;;;;;;15.80;99.90;;;;;;5091210;28;19908;-73
2024/04/01 10:20:51;;;;;;;;;;;16.00;99.90;;;;;;5088720;28;19916;-74
2024/04/01 10:23:32;;;;;;;;;;;16.20;99.90;;;;;;5084571;28;19979;-74
2024/04/01 10:26:21;;;;;;;;;;;16.20;99.90;;;;;;5091062;28;19915;-73
2024/04/01 10:28:56;;;;;;;;;;;16.20;99.90;;;;;;5085093;28;19915;-74
2024/04/01 10:31:36;;;;;;;;;;;16.20;99.90;;;;;;5089608;28;19912;-73
2024/04/01 10:34:21;;;;;;;;;;;16.30;99.90;;;;;;5092332;28;19965;-74
2024/04/01 10:36:47;;;;;;;;;;;16.40;99.90;;;;;;5082351;28;20309;-74
2024/04/01 10:39:27;;;;;;;;;;;16.50;99.90;;;;;;5091609;28;19969;-73
2024/04/01 10:41:57;;;;;;;;;;;16.60;99.90;;;;;;5091243;28;19908;-74
2024/04/01 10:44:23;;;;;;;;;;;16.70;99.90;;;;;;5091040;28;19965;-72
2024/04/01 10:47:08;;;;;;;;;;;17.00;99.90;;;;;;5106854;28;19915;-74
2024/04/01 10:49:33;;;;;;;;;;;17.10;99.90;;;;;;5095695;28;20412;-72
2024/04/01 10:52:22;;;;;;;;;;;17.20;99.90;;;;;;5099591;28;19912;-72
2024/04/01 10:54:47;;;;;;;;;;;17.20;99.90;;;;;;5083042;28;19942;-74
2024/04/01 10:57:13;;;;;;;;;;;17.40;99.90;;;;;;5090294;28;19912;-72
2024/04/01 11:00:00;;;;;;;;;;;17.40;99.90;;;;;;5089721;28;19935;-72
2024/04/01 11:02:48;;;;;;;;;;;17.50;99.90;;;;;;5091725;28;19909;-72
2024/04/01 11:05:14;;;;;;;;;;;17.50;99.90;;;;;;5076195;28;19913;-71
2024/04/01 11:07:42;;;;;;;;;;;17.60;99.90;;;;;;5090686;28;19909;-72
2024/04/01 11:10:20;;;;;;;;;;;17.60;99.90;;;;;;5090880;28;19908;-72
2024/04/01 11:12:54;;;;;;;;;;;17.70;99.90;;;;;;5090496;28;19915;-73
2024/04/01 11:15:20;;;;;;;;;;;17.50;99.90;;;;;;5091038;28;19908;-72
2024/04/01 11:17:46;;;;;;;;;;;17.40;99.90;;;;;;5092042;28;19908;-71
2024/04/01 11:20:19;;;;;;;;;;;17.30;99.90;;;;;;5090650;28;19920;-70
2024/04/01 11:23:09;;;;;;;;;;;17.40;99.90;;;;;;5091625;28;19913;-72
2024/04/01 11:25:37;;;;;;;;;;;17.60;99.90;;;;;;5084467;28;19908;-71
2024/04/01 11:28:14;;;;;;;;;;;17.80;99.90;;;;;;5089927;28;19908;-72
2024/04/01 11:30:40;;;;;;;;;;;17.80;99.90;;;;;;5090491;28;19951;-72
2024/04/01 11:33:08;;;;;;;;;;;17.80;99.90;;;;;;5091602;28;20493;-71
2024/04/01 11:35:37;;;;;;;;;;;17.80;99.90;;;;;;5091546;28;20002;-71
2024/04/01 11:38:02;;;;;;;;;;;17.70;99.90;;;;;;5091002;28;19908;-72
2024/04/01 11:40:30;;;;;;;;;;;17.70;99.90;;;;;;5089945;28;20011;-72
2024/04/01 11:42:59;;;;;;;;;;;17.70;99.90;;;;;;5084107;28;19951;-72
2024/04/01 11:45:28;;;;;;;;;;;17.70;99.90;;;;;;5089762;28;19923;-72
2024/04/01 11:47:53;;;;;;;;;;;17.60;99.90;;;;;;5080725;28;19915;-72
2024/04/01 11:50:19;;;;;;;;;;;17.60;99.90;;;;;;5089517;28;19995;-72
2024/04/01 11:53:05;;;;;;;;;;;17.50;99.90;;;;;;5089728;28;19924;-72
2024/04/01 11:55:31;;;;;;;;;;;17.40;99.90;;;;;;5091129;28;19912;-71
2024/04/01 11:58:09;;;;;;;;;;;17.30;99.90;;;;;;5090158;28;20255;-71
2024/04/01 12:00:34;;;;;;;;;;;17.30;99.90;;;;;;5103487;28;19912;-73
2024/04/01 12:03:01;;;;;;;;;;;17.20;99.90;;;;;;5087678;28;20398;-73
2024/04/01 12:05:26;;;;;;;;;;;17.20;99.90;;;;;;5080418;28;19957;-73
2024/04/01 12:07:52;;;;;;;;;;;17.10;99.90;;;;;;5089076;28;19913;-73
2024/04/01 12:10:18;;;;;;;;;;;17.10;99.90;;;;;;5079550;28;20394;-73
2024/04/01 12:12:46;;;;;;;;;;;17.10;99.90;;;;;;5086725;28;19919;-73
2024/04/01 12:15:17;;;;;;;;;;;17.10;99.90;;;;;;5090187;28;20128;-74
2024/04/01 12:17:43;;;;;;;;;;;17.10;99.90;;;;;;5093613;28;19968;-72
2024/04/01 12:20:09;;;;;;;;;;;17.20;99.90;;;;;;5089805;28;20023;-72
2024/04/01 12:22:35;;;;;;;;;;;17.20;99.90;;;;;;5083079;28;19952;-73
2024/04/01 12:25:01;;;;;;;;;;;17.20;99.90;;;;;;5089573;28;19954;-72
2024/04/01 12:27:30;;;;;;;;;;;17.20;99.90;;;;;;5095154;28;19908;-73
2024/04/01 12:29:57;;;;;;;;;;;17.20;99.90;;;;;;5092432;28;19916;-73
2024/04/01 12:32:23;;;;;;;;;;;17.30;99.90;;;;;;5091783;28;20379;-73
2024/04/01 12:34:51;;;;;;;;;;;17.50;99.90;;;;;;5094504;28;19909;-72
2024/04/01 12:37:16;;;;;;;;;;;17.60;99.90;;;;;;5092315;28;20311;-71
2024/04/01 12:39:47;;;;;;;;;;;17.80;99.90;;;;;;5096716;28;19916;-72
2024/04/01 12:42:16;;;;;;;;;;;18.00;99.90;;;;;;5098576;28;20137;-72
2024/04/01 12:44:43;;;;;;;;;;;18.20;99.90;;;;;;5093617;28;20397;-72
2024/04/01 12:47:09;;;;;;;;;;;18.50;99.90;;;;;;5094282;28;19908;-71
2024/04/01 12:49:35;;;;;;;;;;;18.60;99.90;;;;;;5094364;28;19908;-72
2024/04/01 12:52:02;;;;;;;;;;;18.80;99.90;;;;;;5093652;28;20204;-72
2024/04/01 12:54:33;;;;;;;;;;;18.90;99.90;;;;;;5094079;28;19963;-72
2024/04/01 12:56:59;;;;;;;;;;;19.00;99.90;;;;;;5093044;28;19947;-71
2024/04/01 12:59:24;;;;;;;;;;;19.20;99.90;;;;;;5093594;28;20438;-72
2024/04/01 13:01:50;;;;;;;;;;;19.40;99.90;;;;;;5094078;28;19908;-72
2024/04/01 13:04:26;;;;;;;;;;;19.40;99.90;;;;;;5092358;28;19915;-73
2024/04/01 13:06:59;;;;;;;;;;;19.20;99.90;;;;;;5083463;28;20504;-73
2024/04/01 13:09:36;;;;;;;;;;;19.10;99.90;;;;;;5093941;28;19908;-72
2024/04/01 13:12:41;;;;;;;;;;;18.90;99.90;;;;;;5093959;28;20153;-72
2024/04/01 13:15:25;;;;;;;;;;;18.70;99.90;;;;;;5052000;28;19948;-72
2024/04/01 13:17:56;;;;;;;;;;;18.70;99.90;;;;;;5051469;28;20296;-72
2024/04/01 13:20:25;;;;;;;;;;;18.70;99.90;;;;;;5085003;28;19963;-73
2024/04/01 13:22:58;;;;;;;;;;;18.60;99.90;;;;;;5092774;28;19912;-72
2024/04/01 13:25:28;;;;;;;;;;;18.80;99.90;;;;;;5092886;28;19908;-72
2024/04/01 13:27:56;;;;;;;;;;;18.60;99.90;;;;;;5093284;28;19958;-71
2024/04/01 13:30:41;;;;;;;;;;;18.50;99.90;;;;;;5088993;28;19912;-71
2024/04/01 13:33:11;;;;;;;;;;;18.40;99.90;;;;;;5093508;28;20375;-71
2024/04/01 13:35:47;;;;;;;;;;;18.30;99.90;;;;;;5093195;28;19908;-72
2024/04/01 13:38:36;;;;;;;;;;;18.20;99.90;;;;;;5092288;28;20057;-71
2024/04/01 13:41:01;;;;;;;;;;;18.10;99.90;;;;;;5084935;28;20296;-71
2024/04/01 13:43:27;;;;;;;;;;;18.10;99.90;;;;;;5093434;28;19908;-73
2024/04/01 13:46:05;;;;;;;;;;;18.10;99.90;;;;;;5091011;28;19912;-73
2024/04/01 13:48:43;;;;;;;;;;;18.10;99.90;;;;;;5084390;28;19919;-73
2024/04/01 13:51:27;;;;;;;;;;;18.10;99.90;;;;;;5093187;28;19908;-73
2024/04/01 13:53:56;;;;;;;;;;;18.20;99.90;;;;;;5091654;28;21331;-73
2024/04/01 13:56:28;;;;;;;;;;;18.20;99.90;;;;;;5093501;28;20395;-72
2024/04/01 13:58:53;;;;;;;;;;;18.10;99.90;;;;;;5096352;28;19938;-72
2024/04/01 14:01:18;;;;;;;;;;;18.10;99.90;;;;;;5105751;28;19971;-71
2024/04/01 14:03:59;;;;;;;;;;;18.10;99.90;;;;;;5100428;28;19912;-74
2024/04/01 14:06:29;;;;;;;;;;;18.20;99.90;;;;;;5092619;28;19916;-73
2024/04/01 14:08:57;;;;;;;;;;;18.30;99.90;;;;;;5092380;28;19915;-73
2024/04/01 14:11:31;;;;;;;;;;;18.60;99.90;;;;;;5091745;28;19999;-73
2024/04/01 14:13:56;;;;;;;;;;;18.90;99.50;;;;;;5092677;28;20312;-72
2024/04/01 14:16:38;;;;;;;;;;;19.10;98.90;;;;;;5091408;28;19926;-72
2024/04/01 14:19:13;;;;;;;;;;;19.30;98.80;;;;;;5079259;28;19928;-73
2024/04/01 14:21:42;;;;;;;;;;;18.90;98.60;;;;;;5091789;28;19919;-73